createdAt,value
2022-10-01T00:02:07.497Z,101022.45
2022-10-01T00:04:37.800Z,101024.65
2022-10-01T00:07:09.859Z,101025.65
2022-10-01T00:09:37.062Z,101023.92
2022-10-01T00:12:04.377Z,101028.95
2022-10-01T00:14:31.834Z,101029.25
2022-10-01T00:16:59.339Z,101027.46
2022-10-01T00:19:26.889Z,101028.48
2022-10-01T00:21:53.948Z,101029.98
2022-10-01T00:24:21.164Z,101032.93
2022-10-01T00:26:48.300Z,101027.02
2022-10-01T00:29:15.554Z,101030.89
2022-10-01T00:31:42.927Z,101034.58
2022-10-01T00:34:12.845Z,101034.28
2022-10-01T00:36:40.606Z,101035.13
2022-10-01T00:39:10.488Z,101032.59
2022-10-01T00:41:38.164Z,101034.55
2022-10-01T00:44:32.571Z,101035.59
2022-10-01T00:47:27.791Z,101032.43
2022-10-01T00:50:31.201Z,101030.77
2022-10-01T00:53:02.305Z,101033.64
2022-10-01T00:55:37.364Z,101035.89
2022-10-01T00:58:06.503Z,101034.20
2022-10-01T01:00:35.980Z,101025.21
2022-10-01T01:03:05.836Z,101021.39
2022-10-01T01:05:33.015Z,101022.73
2022-10-01T01:08:01.109Z,101023.48
2022-10-01T01:11:02.853Z,101021.05
2022-10-01T01:13:33.386Z,101025.83
2022-10-01T01:16:23.585Z,101024.95
2022-10-01T01:19:08.132Z,101021.29
2022-10-01T01:21:45.215Z,101023.33
2022-10-01T01:24:27.889Z,101024.96
2022-10-01T01:27:32.530Z,101031.80
2022-10-01T01:30:14.531Z,101030.40
2022-10-01T01:33:02.683Z,101033.29
2022-10-01T01:35:52.281Z,101037.27
2022-10-01T01:38:27.536Z,101047.59
2022-10-01T01:41:00.160Z,101042.70
2022-10-01T01:43:36.679Z,101042.04
2022-10-01T01:46:07.472Z,101035.24
2022-10-01T01:48:37.259Z,101039.91
2022-10-01T01:51:27.913Z,101036.98
2022-10-01T01:53:55.121Z,101036.83
2022-10-01T01:56:23.437Z,101041.86
2022-10-01T01:58:53.047Z,101038.08
2022-10-01T02:01:37.139Z,101041.70
2022-10-01T02:04:43.465Z,101037.59
2022-10-01T02:07:36.181Z,101041.52
2022-10-01T02:10:15.259Z,101049.67
2022-10-01T02:13:14.614Z,101053.56
2022-10-01T02:16:00.854Z,101060.08
2022-10-01T02:18:48.357Z,101058.98
2022-10-01T02:21:34.747Z,101057.52
2022-10-01T02:24:26.080Z,101055.05
2022-10-01T02:26:56.579Z,101056.17
2022-10-01T02:29:24.876Z,101059.58
2022-10-01T02:31:56.359Z,101063.64
2022-10-01T02:34:28.861Z,101068.91
2022-10-01T02:37:00.052Z,101074.52
2022-10-01T02:39:30.297Z,101078.98
2022-10-01T02:41:59.119Z,101075.67
2022-10-01T02:44:37.429Z,101078.59
2022-10-01T02:47:37.272Z,101080.02
2022-10-01T02:50:07.492Z,101079.63
2022-10-01T02:52:43.698Z,101079.85
2022-10-01T02:55:30.234Z,101078.30
2022-10-01T02:57:57.940Z,101075.15
2022-10-01T03:00:26.668Z,101076.96
2022-10-01T03:02:54.513Z,101071.94
2022-10-01T03:05:21.932Z,101069.02
2022-10-01T03:07:49.704Z,101073.92
2022-10-01T03:10:17.045Z,101074.61
2022-10-01T03:12:45.981Z,101072.50
2022-10-01T03:15:16.325Z,101068.79
2022-10-01T03:17:43.747Z,101069.30
2022-10-01T03:20:11.836Z,101070.07
2022-10-01T03:22:39.091Z,101070.77
2022-10-01T03:25:06.865Z,101068.13
2022-10-01T03:27:34.081Z,101068.02
2022-10-01T03:30:01.360Z,101071.79
2022-10-01T03:32:28.511Z,101072.25
2022-10-01T03:34:55.648Z,101073.23
2022-10-01T03:37:22.841Z,101071.10
2022-10-01T03:39:50.047Z,101066.55
2022-10-01T03:42:17.167Z,101059.13
2022-10-01T03:44:44.338Z,101059.53
2022-10-01T03:47:21.658Z,101051.38
2022-10-01T03:49:49.026Z,101052.35
2022-10-01T03:52:16.282Z,101053.67
2022-10-01T03:54:43.781Z,101059.54
2022-10-01T03:57:11.073Z,101062.59
2022-10-01T03:59:38.548Z,101067.68
2022-10-01T04:02:07.814Z,101074.15
2022-10-01T04:04:35.246Z,101073.41
2022-10-01T04:07:02.518Z,101073.63
2022-10-01T04:09:29.769Z,101077.26
2022-10-01T04:11:57.467Z,101074.71
2022-10-01T04:14:24.826Z,101080.45
2022-10-01T04:16:52.759Z,101085.58
2022-10-01T04:19:20.054Z,101089.91
2022-10-01T04:21:47.479Z,101094.36
2022-10-01T04:24:17.819Z,101094.94
2022-10-01T04:26:45.949Z,101090.58
2022-10-01T04:29:13.397Z,101088.64
2022-10-01T04:31:41.264Z,101082.52
2022-10-01T04:34:09.832Z,101083.04
2022-10-01T04:36:37.139Z,101082.34
2022-10-01T04:39:04.492Z,101086.64
2022-10-01T04:41:32.263Z,101091.91
2022-10-01T04:44:02.230Z,101083.73
2022-10-01T04:46:29.882Z,101093.22
2022-10-01T04:48:57.536Z,101096.45
2022-10-01T04:51:24.792Z,101097.77
2022-10-01T04:53:53.588Z,101098.89
2022-10-01T04:56:24.376Z,101104.70
2022-10-01T04:58:51.572Z,101104.05
2022-10-01T05:01:19.164Z,101102.45
2022-10-01T05:03:47.067Z,101101.70
2022-10-01T05:06:14.364Z,101102.11
2022-10-01T05:08:41.677Z,101097.05
2022-10-01T05:11:10.496Z,101100.60
2022-10-01T05:13:38.635Z,101105.53
2022-10-01T05:16:06.193Z,101106.71
2022-10-01T05:18:33.799Z,101106.92
2022-10-01T05:21:06.781Z,101112.95
2022-10-01T05:23:34.058Z,101115.84
2022-10-01T05:26:03.774Z,101114.50
2022-10-01T05:28:32.281Z,101110.80
2022-10-01T05:31:01.803Z,101112.09
2022-10-01T05:33:30.773Z,101115.45
2022-10-01T05:35:58.482Z,101118.58
2022-10-01T05:38:26.161Z,101118.29
2022-10-01T05:40:53.272Z,101122.16
2022-10-01T05:43:20.531Z,101119.03
2022-10-01T05:45:49.313Z,101118.71
2022-10-01T05:48:17.272Z,101112.02
2022-10-01T05:50:44.496Z,101110.69
2022-10-01T05:53:13.489Z,101103.16
2022-10-01T05:55:40.694Z,101102.38
2022-10-01T05:58:10.676Z,101105.37
2022-10-01T06:00:40.156Z,101105.65
2022-10-01T06:03:12.054Z,101105.44
2022-10-01T06:05:39.460Z,101107.69
2022-10-01T06:08:09.296Z,101106.06
2022-10-01T06:10:37.674Z,101108.86
2022-10-01T06:13:06.109Z,101112.14
2022-10-01T06:15:38.588Z,101112.23
2022-10-01T06:18:10.866Z,101111.04
2022-10-01T06:20:39.369Z,101114.29
2022-10-01T06:23:11.779Z,101112.58
2022-10-01T06:25:43.144Z,101112.36
2022-10-01T06:28:13.963Z,101111.11
2022-10-01T06:30:42.344Z,101121.23
2022-10-01T06:33:15.988Z,101118.50
2022-10-01T06:35:49.760Z,101120.73
2022-10-01T06:38:19.718Z,101121.37
2022-10-01T06:40:58.941Z,101119.73
2022-10-01T06:43:29.790Z,101116.73
2022-10-01T06:46:00.636Z,101108.25
2022-10-01T06:48:30.870Z,101114.05
2022-10-01T06:50:58.911Z,101116.55
2022-10-01T06:53:27.968Z,101121.57
2022-10-01T06:55:55.892Z,101124.52
2022-10-01T06:58:27.057Z,101123.41
2022-10-01T07:01:00.893Z,101117.61
2022-10-01T07:03:29.024Z,101121.60
2022-10-01T07:06:05.192Z,101128.22
2022-10-01T07:08:32.812Z,101128.42
2022-10-01T07:11:02.325Z,101127.15
2022-10-01T07:13:30.792Z,101126.38
2022-10-01T07:15:58.118Z,101121.89
2022-10-01T07:18:25.578Z,101119.17
2022-10-01T07:20:52.848Z,101117.13
2022-10-01T07:23:20.069Z,101115.36
2022-10-01T07:25:47.319Z,101109.22
2022-10-01T07:28:19.634Z,101107.59
2022-10-01T07:30:56.847Z,101104.02
2022-10-01T07:33:24.282Z,101100.15
2022-10-01T07:35:51.581Z,101101.36
2022-10-01T07:38:18.948Z,101104.30
2022-10-01T07:40:58.394Z,101099.85
2022-10-01T07:43:25.682Z,101095.75
2022-10-01T07:45:54.638Z,101090.42
2022-10-01T07:48:21.926Z,101089.73
2022-10-01T07:50:49.804Z,101085.80
2022-10-01T07:53:17.866Z,101078.09
2022-10-01T07:55:45.547Z,101065.89
2022-10-01T07:58:13.210Z,101072.89
2022-10-01T08:00:40.578Z,101071.80
2022-10-01T08:03:11.637Z,101068.32
2022-10-01T08:05:42.826Z,101061.51
2022-10-01T08:08:10.035Z,101057.48
2022-10-01T08:10:38.286Z,101053.42
2022-10-01T08:13:14.194Z,101051.50
2022-10-01T08:15:49.995Z,101050.42
2022-10-01T08:18:17.711Z,101038.72
2022-10-01T08:20:45.964Z,101043.13
2022-10-01T08:23:16.446Z,101040.77
2022-10-01T08:26:01.100Z,101031.76
2022-10-01T08:28:29.342Z,101030.43
2022-10-01T08:30:56.944Z,101028.46
2022-10-01T08:33:24.231Z,101027.08
2022-10-01T08:35:51.404Z,101025.98
2022-10-01T08:38:19.294Z,101020.17
2022-10-01T08:40:49.989Z,101015.00
2022-10-01T08:43:42.206Z,101009.58
2022-10-01T08:46:20.740Z,101005.38
2022-10-01T08:49:12.097Z,100999.84
2022-10-01T08:52:12.856Z,100997.60
2022-10-01T08:54:56.510Z,100994.55
2022-10-01T08:57:30.505Z,100984.89
2022-10-01T09:00:01.256Z,100985.45
2022-10-01T09:02:42.313Z,100984.07
2022-10-01T09:05:47.996Z,100977.84
2022-10-01T09:08:56.466Z,100968.64
2022-10-01T09:12:04.251Z,100966.55
2022-10-01T09:14:37.499Z,100965.52
2022-10-01T09:17:29.885Z,100963.70
2022-10-01T09:20:22.022Z,100948.80
2022-10-01T09:23:30.823Z,100951.89
2022-10-01T09:26:02.014Z,100952.89
2022-10-01T09:28:34.819Z,100950.46
2022-10-01T09:31:06.299Z,100943.05
2022-10-01T09:33:38.050Z,100929.81
2022-10-01T09:36:11.192Z,100922.14
2022-10-01T09:38:41.952Z,100930.20
2022-10-01T09:41:12.400Z,100926.33
2022-10-01T09:43:43.602Z,100923.31
2022-10-01T09:46:16.975Z,100920.28
2022-10-01T09:48:59.265Z,100913.35
2022-10-01T09:51:40.435Z,100909.15
2022-10-01T09:54:36.428Z,100908.86
2022-10-01T09:57:14.480Z,100903.36
2022-10-01T10:00:01.151Z,100894.96
2022-10-01T10:02:41.409Z,100895.10
2022-10-01T10:05:29.353Z,100888.59
2022-10-01T10:08:10.327Z,100885.55
2022-10-01T10:10:40.260Z,100888.02
2022-10-01T10:13:10.665Z,100887.14
2022-10-01T10:15:51.126Z,100881.67
2022-10-01T10:18:34.893Z,100872.71
2022-10-01T10:21:10.319Z,100871.27
2022-10-01T10:23:51.800Z,100867.54
2022-10-01T10:26:28.117Z,100862.78
2022-10-01T10:28:58.429Z,100858.92
2022-10-01T10:31:50.509Z,100859.45
2022-10-01T10:34:22.739Z,100850.80
2022-10-01T10:36:57.265Z,100847.22
2022-10-01T10:39:40.359Z,100847.93
2022-10-01T10:42:08.109Z,100846.56
2022-10-01T10:44:41.842Z,100839.40
2022-10-01T10:47:18.840Z,100836.44
2022-10-01T10:50:02.229Z,100832.58
2022-10-01T10:52:36.516Z,100829.40
2022-10-01T10:55:26.585Z,100825.81
2022-10-01T10:57:57.528Z,100816.70
2022-10-01T11:00:26.304Z,100818.41
2022-10-01T11:03:01.238Z,100810.90
2022-10-01T11:05:39.457Z,100816.38
2022-10-01T11:08:19.965Z,100815.79
2022-10-01T11:11:31.960Z,100808.41
2022-10-01T11:14:23.606Z,100803.07
2022-10-01T11:17:12.632Z,100798.34
2022-10-01T11:19:48.893Z,100791.55
2022-10-01T11:23:00.388Z,100787.01
2022-10-01T11:26:06.235Z,100781.73
2022-10-01T11:29:01.118Z,100775.94
2022-10-01T11:32:10.143Z,100775.55
2022-10-01T11:34:53.774Z,100767.27
2022-10-01T11:37:47.273Z,100756.13
2022-10-01T11:41:02.580Z,100747.99
2022-10-01T11:43:59.216Z,100747.27
2022-10-01T11:46:54.628Z,100749.58
2022-10-01T11:49:54.811Z,100747.54
2022-10-01T11:52:46.677Z,100742.22
2022-10-01T11:56:06.758Z,100741.83
2022-10-01T11:58:57.806Z,100739.64
2022-10-01T12:02:20.994Z,100746.05
2022-10-01T12:05:17.374Z,100745.11
2022-10-01T12:07:59.462Z,100746.88
2022-10-01T12:11:00.767Z,100750.97
2022-10-01T12:13:48.658Z,100754.94
2022-10-01T12:16:44.868Z,100742.85
2022-10-01T12:19:42.511Z,100735.89
2022-10-01T12:22:24.345Z,100722.45
2022-10-01T12:24:53.415Z,100724.42
2022-10-01T12:27:53.591Z,100721.98
2022-10-01T12:30:24.511Z,100715.65
2022-10-01T12:33:04.362Z,100708.65
2022-10-01T12:35:53.911Z,100708.93
2022-10-01T12:39:02.051Z,100713.94
2022-10-01T12:42:07.495Z,100708.52
2022-10-01T12:45:12.172Z,100697.73
2022-10-01T12:48:20.804Z,100694.87
2022-10-01T12:50:50.991Z,100690.21
2022-10-01T12:53:29.305Z,100686.98
2022-10-01T12:56:31.689Z,100688.78
2022-10-01T12:59:42.384Z,100686.66
2022-10-01T13:03:06.688Z,100684.48
2022-10-01T13:05:45.637Z,100681.14
2022-10-01T13:08:18.632Z,100673.95
2022-10-01T13:11:37.013Z,100667.59
2022-10-01T13:14:06.987Z,100664.20
2022-10-01T13:16:49.752Z,100656.23
2022-10-01T13:19:54.617Z,100649.02
2022-10-01T13:22:40.978Z,100646.05
2022-10-01T13:25:40.977Z,100643.91
2022-10-01T13:28:26.199Z,100635.59
2022-10-01T13:31:18.703Z,100635.36
2022-10-01T13:33:57.479Z,100628.81
2022-10-01T13:36:35.928Z,100625.83
2022-10-01T13:39:03.591Z,100621.79
2022-10-01T13:41:34.506Z,100620.90
2022-10-01T13:44:08.040Z,100619.14
2022-10-01T13:46:53.020Z,100612.29
2022-10-01T13:49:29.542Z,100602.92
2022-10-01T13:51:58.391Z,100594.02
2022-10-01T13:54:39.432Z,100591.18
2022-10-01T13:57:26.638Z,100582.55
2022-10-01T14:00:23.063Z,100576.18
2022-10-01T14:03:23.089Z,100575.73
2022-10-01T14:05:57.426Z,100575.90
2022-10-01T14:08:37.744Z,100579.81
2022-10-01T14:11:34.709Z,100584.45
2022-10-01T14:14:52.199Z,100580.05
2022-10-01T14:17:30.292Z,100566.73
2022-10-01T14:20:00.289Z,100557.86
2022-10-01T14:23:12.206Z,100556.44
2022-10-01T14:26:27.974Z,100549.36
2022-10-01T14:29:50.503Z,100545.16
2022-10-01T14:32:30.452Z,100535.58
2022-10-01T14:35:27.222Z,100527.66
2022-10-01T14:38:05.254Z,100522.51
2022-10-01T14:40:42.910Z,100511.55
2022-10-01T14:43:26.021Z,100509.23
2022-10-01T14:46:12.403Z,100505.49
2022-10-01T14:48:42.354Z,100500.86
2022-10-01T14:51:59.721Z,100500.80
2022-10-01T14:54:29.580Z,100495.89
2022-10-01T14:56:57.015Z,100495.48
2022-10-01T14:59:35.369Z,100498.35
2022-10-01T15:02:17.587Z,100495.61
2022-10-01T15:04:50.819Z,100490.63
2022-10-01T15:07:18.921Z,100484.08
2022-10-01T15:09:47.332Z,100477.58
2022-10-01T15:12:17.499Z,100476.56
2022-10-01T15:14:46.544Z,100477.14
2022-10-01T15:17:24.982Z,100483.13
2022-10-01T15:19:56.217Z,100484.89
2022-10-01T15:22:29.651Z,100480.17
2022-10-01T15:25:01.744Z,100483.27
2022-10-01T15:27:29.198Z,100480.19
2022-10-01T15:30:01.097Z,100472.58
2022-10-01T15:32:28.744Z,100470.78
2022-10-01T15:35:01.177Z,100465.54
2022-10-01T15:37:35.621Z,100458.98
2022-10-01T15:40:07.174Z,100459.47
2022-10-01T15:42:36.187Z,100458.34
2022-10-01T15:45:06.400Z,100458.59
2022-10-01T15:47:48.861Z,100457.14
2022-10-01T15:50:22.587Z,100451.70
2022-10-01T15:53:21.501Z,100447.41
2022-10-01T15:55:53.775Z,100444.20
2022-10-01T15:58:31.850Z,100442.22
2022-10-01T16:01:22.049Z,100436.98
2022-10-01T16:04:05.542Z,100429.66
2022-10-01T16:06:51.482Z,100423.00
2022-10-01T16:09:21.385Z,100418.53
2022-10-01T16:12:03.641Z,100413.38
2022-10-01T16:14:43.320Z,100410.55
2022-10-01T16:17:16.636Z,100410.58
2022-10-01T16:19:56.374Z,100401.94
2022-10-01T16:22:32.017Z,100400.38
2022-10-01T16:25:06.926Z,100403.09
2022-10-01T16:27:47.166Z,100402.31
2022-10-01T16:30:26.880Z,100396.23
2022-10-01T16:32:56.781Z,100390.95
2022-10-01T16:35:35.008Z,100387.58
2022-10-01T16:38:07.870Z,100385.48
2022-10-01T16:40:42.376Z,100378.97
2022-10-01T16:43:23.857Z,100378.45
2022-10-01T16:45:51.259Z,100367.65
2022-10-01T16:48:24.204Z,100362.95
2022-10-01T16:50:58.379Z,100354.75
2022-10-01T16:53:26.319Z,100351.70
2022-10-01T16:55:55.572Z,100342.50
2022-10-01T16:58:22.818Z,100337.73
2022-10-01T17:00:50.967Z,100335.41
2022-10-01T17:03:21.952Z,100334.22
2022-10-01T17:05:49.548Z,100334.45
2022-10-01T17:08:16.748Z,100326.39
2022-10-01T17:10:50.286Z,100328.86
2022-10-01T17:13:17.454Z,100326.12
2022-10-01T17:15:46.963Z,100323.70
2022-10-01T17:18:14.138Z,100324.77
2022-10-01T17:20:41.652Z,100324.59
2022-10-01T17:23:14.920Z,100317.14
2022-10-01T17:25:42.806Z,100319.84
2022-10-01T17:28:17.725Z,100311.46
2022-10-01T17:30:47.540Z,100303.54
2022-10-01T17:33:20.450Z,100298.88
2022-10-01T17:35:55.102Z,100293.98
2022-10-01T17:38:22.930Z,100291.00
2022-10-01T17:40:56.189Z,100285.80
2022-10-01T17:43:24.766Z,100282.05
2022-10-01T17:45:58.348Z,100267.19
2022-10-01T17:48:27.690Z,100281.75
2022-10-01T17:51:09.175Z,100281.46
2022-10-01T17:53:42.206Z,100278.41
2022-10-01T17:56:17.158Z,100278.79
2022-10-01T17:58:46.075Z,100276.88
2022-10-01T18:01:19.207Z,100269.77
2022-10-01T18:03:46.512Z,100262.19
2022-10-01T18:06:14.766Z,100258.11
2022-10-01T18:08:54.726Z,100254.73
2022-10-01T18:11:27.095Z,100248.88
2022-10-01T18:13:54.763Z,100240.84
2022-10-01T18:16:23.301Z,100233.94
2022-10-01T18:21:46.948Z,100229.45
2022-10-01T18:24:15.623Z,100226.70
2022-10-01T18:26:45.101Z,100220.94
2022-10-01T18:29:19.753Z,100215.73
2022-10-01T18:31:51.419Z,100213.70
2022-10-01T18:34:32.725Z,100214.45
2022-10-01T18:37:07.541Z,100206.66
2022-10-01T18:39:47.642Z,100199.25
2022-10-01T18:42:25.867Z,100199.41
2022-10-01T18:45:25.536Z,100195.13
2022-10-01T18:48:32.203Z,100186.89
2022-10-01T18:51:23.855Z,100181.29
2022-10-01T18:54:37.118Z,100174.86
2022-10-01T18:57:29.275Z,100171.64
2022-10-01T19:00:21.345Z,100169.55
2022-10-01T19:03:00.673Z,100164.92
2022-10-01T19:05:45.391Z,100161.26
2022-10-01T19:08:37.304Z,100155.27
2022-10-01T19:11:35.771Z,100149.17
2022-10-01T19:14:38.698Z,100143.61
2022-10-01T19:17:46.250Z,100140.23
2022-10-01T19:20:13.379Z,100136.40
2022-10-01T19:23:12.246Z,100133.70
2022-10-01T19:25:51.904Z,100123.89
2022-10-01T19:29:09.039Z,100115.42
2022-10-01T19:31:39.960Z,100104.46
2022-10-01T19:34:26.068Z,100097.90
2022-10-01T19:37:01.671Z,100086.82
2022-10-01T19:39:37.277Z,100085.89
2022-10-01T19:42:25.594Z,100082.11
2022-10-01T19:45:05.008Z,100082.48
2022-10-01T19:47:56.965Z,100071.17
2022-10-01T19:50:33.367Z,100070.40
2022-10-01T19:53:03.218Z,100064.83
2022-10-01T19:55:38.812Z,100058.16
2022-10-01T19:58:21.012Z,100055.61
2022-10-01T20:00:58.597Z,100052.43
2022-10-01T20:03:57.699Z,100049.48
2022-10-01T20:06:32.120Z,100047.68
2022-10-01T20:09:18.211Z,100049.33
2022-10-01T20:12:00.811Z,100047.91
2022-10-01T20:15:08.931Z,100044.51
2022-10-01T20:18:14.016Z,100038.60
2022-10-01T20:20:50.644Z,100031.21
2022-10-01T20:23:38.242Z,100025.08
2022-10-01T20:26:16.684Z,100013.39
2022-10-01T20:29:32.171Z,100009.42
2022-10-01T20:32:25.417Z,99999.79
2022-10-01T20:35:27.777Z,99996.66
2022-10-01T20:38:21.111Z,99998.77
2022-10-01T20:40:57.524Z,99999.56
2022-10-01T20:43:36.768Z,100000.81
2022-10-01T20:46:23.137Z,99994.60
2022-10-01T20:49:01.053Z,99994.48
2022-10-01T20:51:50.870Z,99994.11
2022-10-01T20:54:22.584Z,99989.11
2022-10-01T20:56:59.165Z,99983.14
2022-10-01T20:59:52.077Z,99971.46
2022-10-01T21:02:43.205Z,99969.23
2022-10-01T21:05:32.466Z,99966.19
2022-10-01T21:08:06.327Z,99965.25
2022-10-01T21:10:42.905Z,99966.89
2022-10-01T21:13:30.289Z,99963.40
2022-10-01T21:16:18.967Z,99962.87
2022-10-01T21:19:19.559Z,99961.23
2022-10-01T21:22:04.586Z,99962.48
2022-10-01T21:25:09.156Z,99965.55
2022-10-01T21:27:55.134Z,99957.23
2022-10-01T21:30:22.735Z,99944.79
2022-10-01T21:33:15.522Z,99939.26
2022-10-01T21:36:09.307Z,99939.23
2022-10-01T21:39:05.180Z,99940.52
2022-10-01T21:41:47.802Z,99938.27
2022-10-01T21:44:48.766Z,99936.10
2022-10-01T21:47:57.785Z,99936.96
2022-10-01T21:50:36.799Z,99933.02
2022-10-01T21:53:11.650Z,99934.12
2022-10-01T21:56:11.356Z,99930.04
2022-10-01T21:59:18.996Z,99931.68
2022-10-01T22:02:27.408Z,99937.36
2022-10-01T22:05:22.287Z,99935.58
2022-10-01T22:08:18.305Z,99939.61
2022-10-01T22:10:52.807Z,99941.87
2022-10-01T22:13:29.994Z,99950.72
2022-10-01T22:16:12.076Z,99954.70
2022-10-01T22:18:57.179Z,99957.30
2022-10-01T22:21:30.382Z,99957.00
2022-10-01T22:24:18.196Z,99971.35
2022-10-01T22:26:54.260Z,99991.76
2022-10-01T22:29:28.338Z,100010.91
2022-10-01T22:32:02.282Z,100022.29
2022-10-01T22:34:43.945Z,100021.02
2022-10-01T22:37:22.277Z,100024.88
2022-10-01T22:39:58.197Z,100021.73
2022-10-01T22:42:33.582Z,100012.77
2022-10-01T22:45:12.206Z,100016.88
2022-10-01T22:48:05.473Z,100015.38
2022-10-01T22:50:50.146Z,100006.63
2022-10-01T22:53:41.239Z,99998.48
2022-10-01T22:56:13.948Z,99990.57
2022-10-01T22:59:13.747Z,99982.84
2022-10-01T23:01:52.826Z,99972.02
2022-10-01T23:04:44.598Z,99966.20
2022-10-01T23:07:22.654Z,99960.99
2022-10-01T23:10:20.177Z,99955.65
2022-10-01T23:13:37.454Z,99944.30
2022-10-01T23:16:28.383Z,99930.73
2022-10-01T23:19:31.276Z,99920.11
2022-10-01T23:22:31.831Z,99910.04
2022-10-01T23:25:28.610Z,99902.56
2022-10-01T23:28:48.397Z,99898.36
2022-10-01T23:31:37.646Z,99900.38
2022-10-01T23:34:35.198Z,99891.55
2022-10-01T23:37:34.572Z,99891.66
2022-10-01T23:40:08.977Z,99886.39
2022-10-01T23:42:47.224Z,99880.75
2022-10-01T23:45:59.748Z,99891.48
2022-10-01T23:48:39.248Z,99902.33
2022-10-01T23:51:27.828Z,99900.07
2022-10-01T23:54:34.785Z,99906.64
2022-10-01T23:57:13.599Z,99903.16
